sensor_id;sensor_type;location;lat;lon;timestamp;P1;durP1;ratioP1;P2;durP2;ratioP2
33108;SDS011;19481;51.118;6.940;2022-11-15T00:02:10;6.28;;;4.63;;
33108;SDS011;19481;51.118;6.940;2022-11-15T00:07:11;5.75;;;4.15;;
33108;SDS011;19481;51.118;6.940;2022-11-15T00:12:13;9.00;;;3.85;;
33108;SDS011;19481;51.118;6.940;2022-11-15T00:17:16;6.03;;;4.65;;
33108;SDS011;19481;51.118;6.940;2022-11-15T00:22:18;4.53;;;3.90;;
33108;SDS011;19481;51.118;6.940;2022-11-15T00:27:19;6.22;;;4.05;;
33108;SDS011;19481;51.118;6.940;2022-11-15T00:32:22;6.55;;;3.95;;
33108;SDS011;19481;51.118;6.940;2022-11-15T00:37:24;6.60;;;4.35;;
33108;SDS011;19481;51.118;6.940;2022-11-15T00:42:26;6.60;;;4.18;;
33108;SDS011;19481;51.118;6.940;2022-11-15T00:47:29;6.50;;;3.95;;
33108;SDS011;19481;51.118;6.940;2022-11-15T00:52:30;8.63;;;3.70;;
33108;SDS011;19481;51.118;6.940;2022-11-15T00:57:32;5.45;;;3.63;;
33108;SDS011;19481;51.118;6.940;2022-11-15T01:02:35;5.53;;;4.13;;
33108;SDS011;19481;51.118;6.940;2022-11-15T01:07:36;7.15;;;3.70;;
33108;SDS011;19481;51.118;6.940;2022-11-15T01:12:38;5.70;;;3.78;;
33108;SDS011;19481;51.118;6.940;2022-11-15T01:17:41;8.85;;;4.18;;
33108;SDS011;19481;51.118;6.940;2022-11-15T01:22:42;7.72;;;3.78;;
33108;SDS011;19481;51.118;6.940;2022-11-15T01:27:44;6.00;;;4.07;;
33108;SDS011;19481;51.118;6.940;2022-11-15T01:32:47;4.32;;;3.92;;
33108;SDS011;19481;51.118;6.940;2022-11-15T01:37:49;5.57;;;4.07;;
33108;SDS011;19481;51.118;6.940;2022-11-15T01:42:50;9.57;;;4.00;;
33108;SDS011;19481;51.118;6.940;2022-11-15T01:47:53;6.63;;;3.83;;
33108;SDS011;19481;51.118;6.940;2022-11-15T01:52:56;6.10;;;4.38;;
33108;SDS011;19481;51.118;6.940;2022-11-15T01:57:59;8.32;;;4.10;;
33108;SDS011;19481;51.118;6.940;2022-11-15T02:03:06;6.17;;;4.47;;
33108;SDS011;19481;51.118;6.940;2022-11-15T02:08:08;10.05;;;3.75;;
33108;SDS011;19481;51.118;6.940;2022-11-15T02:13:19;5.40;;;3.95;;
33108;SDS011;19481;51.118;6.940;2022-11-15T02:18:23;4.43;;;4.03;;
33108;SDS011;19481;51.118;6.940;2022-11-15T02:28:57;5.65;;;3.58;;
33108;SDS011;19481;51.118;6.940;2022-11-15T02:34:05;8.23;;;4.45;;
33108;SDS011;19481;51.118;6.940;2022-11-15T02:39:15;5.18;;;3.88;;
33108;SDS011;19481;51.118;6.940;2022-11-15T02:44:24;6.13;;;3.80;;
33108;SDS011;19481;51.118;6.940;2022-11-15T02:49:32;4.57;;;3.63;;
33108;SDS011;19481;51.118;6.940;2022-11-15T02:54:35;8.15;;;4.32;;
33108;SDS011;19481;51.118;6.940;2022-11-15T02:59:43;4.50;;;4.10;;
33108;SDS011;19481;51.118;6.940;2022-11-15T03:05:09;6.90;;;3.80;;
33108;SDS011;19481;51.118;6.940;2022-11-15T03:10:17;9.07;;;4.13;;
33108;SDS011;19481;51.118;6.940;2022-11-15T03:15:25;7.20;;;4.00;;
33108;SDS011;19481;51.118;6.940;2022-11-15T03:20:31;6.88;;;3.72;;
33108;SDS011;19481;51.118;6.940;2022-11-15T03:25:36;5.47;;;3.45;;
33108;SDS011;19481;51.118;6.940;2022-11-15T03:30:42;6.00;;;4.20;;
33108;SDS011;19481;51.118;6.940;2022-11-15T03:35:48;6.50;;;4.07;;
33108;SDS011;19481;51.118;6.940;2022-11-15T03:40:52;8.38;;;3.70;;
33108;SDS011;19481;51.118;6.940;2022-11-15T03:45:59;7.32;;;3.50;;
33108;SDS011;19481;51.118;6.940;2022-11-15T03:51:05;5.47;;;3.55;;
33108;SDS011;19481;51.118;6.940;2022-11-15T03:56:07;5.80;;;3.00;;
33108;SDS011;19481;51.118;6.940;2022-11-15T04:01:08;4.28;;;3.20;;
33108;SDS011;19481;51.118;6.940;2022-11-15T04:06:11;5.97;;;3.35;;
33108;SDS011;19481;51.118;6.940;2022-11-15T04:11:13;4.75;;;3.30;;
33108;SDS011;19481;51.118;6.940;2022-11-15T04:16:14;5.45;;;3.30;;
33108;SDS011;19481;51.118;6.940;2022-11-15T04:21:17;4.47;;;3.20;;
33108;SDS011;19481;51.118;6.940;2022-11-15T04:26:36;4.95;;;3.72;;
33108;SDS011;19481;51.118;6.940;2022-11-15T04:31:38;4.03;;;3.20;;
33108;SDS011;19481;51.118;6.940;2022-11-15T04:36:41;3.88;;;3.25;;
33108;SDS011;19481;51.118;6.940;2022-11-15T04:42:00;4.15;;;3.63;;
33108;SDS011;19481;51.118;6.940;2022-11-15T04:47:02;5.13;;;3.78;;
33108;SDS011;19481;51.118;6.940;2022-11-15T04:52:05;6.65;;;3.63;;
33108;SDS011;19481;51.118;6.940;2022-11-15T04:57:07;6.35;;;3.47;;
33108;SDS011;19481;51.118;6.940;2022-11-15T05:02:09;3.70;;;3.28;;
33108;SDS011;19481;51.118;6.940;2022-11-15T05:07:12;3.78;;;3.35;;
33108;SDS011;19481;51.118;6.940;2022-11-15T05:12:13;3.95;;;3.60;;
33108;SDS011;19481;51.118;6.940;2022-11-15T05:17:15;3.53;;;3.13;;
33108;SDS011;19481;51.118;6.940;2022-11-15T05:22:18;3.75;;;3.35;;
33108;SDS011;19481;51.118;6.940;2022-11-15T05:27:20;3.38;;;3.00;;
33108;SDS011;19481;51.118;6.940;2022-11-15T05:32:22;4.78;;;3.30;;
33108;SDS011;19481;51.118;6.940;2022-11-15T05:37:26;5.32;;;3.55;;
33108;SDS011;19481;51.118;6.940;2022-11-15T05:42:27;8.95;;;3.38;;
33108;SDS011;19481;51.118;6.940;2022-11-15T05:47:30;5.22;;;4.35;;
33108;SDS011;19481;51.118;6.940;2022-11-15T05:52:34;3.95;;;3.53;;
33108;SDS011;19481;51.118;6.940;2022-11-15T05:57:39;3.95;;;3.60;;
33108;SDS011;19481;51.118;6.940;2022-11-15T06:02:40;6.07;;;3.22;;
33108;SDS011;19481;51.118;6.940;2022-11-15T06:07:43;3.25;;;2.72;;
33108;SDS011;19481;51.118;6.940;2022-11-15T06:12:45;6.45;;;3.03;;
33108;SDS011;19481;51.118;6.940;2022-11-15T06:17:46;3.80;;;3.30;;
33108;SDS011;19481;51.118;6.940;2022-11-15T06:22:49;5.03;;;3.25;;
33108;SDS011;19481;51.118;6.940;2022-11-15T06:27:51;4.80;;;3.58;;
33108;SDS011;19481;51.118;6.940;2022-11-15T06:32:58;2.90;;;2.70;;
33108;SDS011;19481;51.118;6.940;2022-11-15T06:38:05;2.73;;;2.47;;
33108;SDS011;19481;51.118;6.940;2022-11-15T06:43:07;4.33;;;2.70;;
33108;SDS011;19481;51.118;6.940;2022-11-15T06:48:09;2.90;;;2.33;;
33108;SDS011;19481;51.118;6.940;2022-11-15T06:53:12;4.70;;;2.83;;
33108;SDS011;19481;51.118;6.940;2022-11-15T06:58:13;4.38;;;2.90;;
33108;SDS011;19481;51.118;6.940;2022-11-15T07:03:15;3.67;;;2.58;;
33108;SDS011;19481;51.118;6.940;2022-11-15T07:08:18;2.28;;;2.08;;
33108;SDS011;19481;51.118;6.940;2022-11-15T07:13:20;2.97;;;2.40;;
33108;SDS011;19481;51.118;6.940;2022-11-15T07:18:25;2.55;;;2.25;;
33108;SDS011;19481;51.118;6.940;2022-11-15T07:23:29;2.88;;;2.17;;
33108;SDS011;19481;51.118;6.940;2022-11-15T07:28:31;2.60;;;2.33;;
33108;SDS011;19481;51.118;6.940;2022-11-15T07:33:32;2.90;;;2.30;;
33108;SDS011;19481;51.118;6.940;2022-11-15T07:38:36;3.90;;;2.67;;
33108;SDS011;19481;51.118;6.940;2022-11-15T07:43:37;2.97;;;2.47;;
33108;SDS011;19481;51.118;6.940;2022-11-15T07:48:39;3.08;;;2.47;;
33108;SDS011;19481;51.118;6.940;2022-11-15T07:53:42;4.18;;;2.42;;
33108;SDS011;19481;51.118;6.940;2022-11-15T07:58:45;3.67;;;2.28;;
33108;SDS011;19481;51.118;6.940;2022-11-15T08:03:47;2.50;;;2.13;;
33108;SDS011;19481;51.118;6.940;2022-11-15T08:08:49;3.45;;;2.53;;
33108;SDS011;19481;51.118;6.940;2022-11-15T08:13:51;2.67;;;1.92;;
33108;SDS011;19481;51.118;6.940;2022-11-15T08:18:53;3.33;;;2.30;;
33108;SDS011;19481;51.118;6.940;2022-11-15T08:23:56;3.55;;;2.42;;
33108;SDS011;19481;51.118;6.940;2022-11-15T08:28:57;3.65;;;2.58;;
33108;SDS011;19481;51.118;6.940;2022-11-15T08:33:59;3.30;;;2.30;;
33108;SDS011;19481;51.118;6.940;2022-11-15T08:39:03;3.00;;;2.30;;
33108;SDS011;19481;51.118;6.940;2022-11-15T08:44:05;4.60;;;3.72;;
33108;SDS011;19481;51.118;6.940;2022-11-15T08:49:07;3.58;;;2.33;;
33108;SDS011;19481;51.118;6.940;2022-11-15T08:54:10;3.55;;;2.42;;
33108;SDS011;19481;51.118;6.940;2022-11-15T08:59:12;2.42;;;2.13;;
33108;SDS011;19481;51.118;6.940;2022-11-15T09:04:15;2.25;;;1.88;;
33108;SDS011;19481;51.118;6.940;2022-11-15T09:09:19;2.30;;;1.90;;
33108;SDS011;19481;51.118;6.940;2022-11-15T09:14:20;1.92;;;1.65;;
33108;SDS011;19481;51.118;6.940;2022-11-15T09:19:22;4.22;;;2.00;;
33108;SDS011;19481;51.118;6.940;2022-11-15T09:24:25;5.57;;;2.00;;
33108;SDS011;19481;51.118;6.940;2022-11-15T09:29:26;1.50;;;1.40;;
33108;SDS011;19481;51.118;6.940;2022-11-15T09:34:28;3.05;;;1.30;;
33108;SDS011;19481;51.118;6.940;2022-11-15T09:39:31;1.30;;;1.20;;
33108;SDS011;19481;51.118;6.940;2022-11-15T09:44:37;1.10;;;1.00;;
33108;SDS011;19481;51.118;6.940;2022-11-15T09:49:46;0.82;;;0.80;;
33108;SDS011;19481;51.118;6.940;2022-11-15T09:54:53;0.70;;;0.70;;
33108;SDS011;19481;51.118;6.940;2022-11-15T10:00:02;1.10;;;1.00;;
33108;SDS011;19481;51.118;6.940;2022-11-15T10:05:10;1.42;;;1.30;;
33108;SDS011;19481;51.118;6.940;2022-11-15T10:10:19;0.90;;;0.90;;
33108;SDS011;19481;51.118;6.940;2022-11-15T10:15:26;1.08;;;0.98;;
33108;SDS011;19481;51.118;6.940;2022-11-15T10:20:28;1.42;;;0.88;;
33108;SDS011;19481;51.118;6.940;2022-11-15T10:25:34;2.65;;;1.15;;
33108;SDS011;19481;51.118;6.940;2022-11-15T10:30:37;0.98;;;0.98;;
33108;SDS011;19481;51.118;6.940;2022-11-15T10:35:40;2.45;;;1.00;;
33108;SDS011;19481;51.118;6.940;2022-11-15T10:40:44;1.65;;;0.90;;
33108;SDS011;19481;51.118;6.940;2022-11-15T10:45:45;3.45;;;0.90;;
33108;SDS011;19481;51.118;6.940;2022-11-15T10:50:49;1.17;;;0.90;;
33108;SDS011;19481;51.118;6.940;2022-11-15T10:55:54;1.42;;;0.90;;
33108;SDS011;19481;51.118;6.940;2022-11-15T11:01:07;1.70;;;0.90;;
33108;SDS011;19481;51.118;6.940;2022-11-15T11:06:11;1.58;;;0.70;;
33108;SDS011;19481;51.118;6.940;2022-11-15T11:11:15;0.50;;;0.50;;
33108;SDS011;19481;51.118;6.940;2022-11-15T11:16:19;0.95;;;0.90;;
33108;SDS011;19481;51.118;6.940;2022-11-15T11:21:38;1.45;;;0.80;;
33108;SDS011;19481;51.118;6.940;2022-11-15T11:26:49;6.15;;;0.93;;
33108;SDS011;19481;51.118;6.940;2022-11-15T11:32:03;2.22;;;0.50;;
33108;SDS011;19481;51.118;6.940;2022-11-15T11:37:17;1.58;;;0.82;;
33108;SDS011;19481;51.118;6.940;2022-11-15T11:42:30;1.85;;;0.60;;
33108;SDS011;19481;51.118;6.940;2022-11-15T11:47:38;0.75;;;0.70;;
33108;SDS011;19481;51.118;6.940;2022-11-15T11:52:43;2.45;;;1.75;;
33108;SDS011;19481;51.118;6.940;2022-11-15T11:58:01;1.58;;;0.70;;
33108;SDS011;19481;51.118;6.940;2022-11-15T12:03:08;3.03;;;1.25;;
33108;SDS011;19481;51.118;6.940;2022-11-15T12:08:18;2.20;;;0.70;;
33108;SDS011;19481;51.118;6.940;2022-11-15T12:13:28;2.67;;;1.00;;
33108;SDS011;19481;51.118;6.940;2022-11-15T12:18:36;3.42;;;0.70;;
33108;SDS011;19481;51.118;6.940;2022-11-15T12:23:39;1.35;;;0.82;;
33108;SDS011;19481;51.118;6.940;2022-11-15T12:28:47;2.70;;;0.70;;
33108;SDS011;19481;51.118;6.940;2022-11-15T12:33:54;2.25;;;0.60;;
33108;SDS011;19481;51.118;6.940;2022-11-15T12:38:58;1.48;;;0.70;;
33108;SDS011;19481;51.118;6.940;2022-11-15T12:44:02;1.23;;;0.60;;
33108;SDS011;19481;51.118;6.940;2022-11-15T12:49:08;3.15;;;0.70;;
33108;SDS011;19481;51.118;6.940;2022-11-15T12:59:54;2.03;;;0.70;;
33108;SDS011;19481;51.118;6.940;2022-11-15T13:10:42;0.80;;;0.65;;
33108;SDS011;19481;51.118;6.940;2022-11-15T13:15:56;5.57;;;0.80;;
33108;SDS011;19481;51.118;6.940;2022-11-15T13:21:00;1.50;;;0.80;;
33108;SDS011;19481;51.118;6.940;2022-11-15T13:26:22;1.77;;;0.60;;
33108;SDS011;19481;51.118;6.940;2022-11-15T13:31:26;1.52;;;0.98;;
33108;SDS011;19481;51.118;6.940;2022-11-15T13:36:31;2.10;;;0.77;;
33108;SDS011;19481;51.118;6.940;2022-11-15T13:41:36;1.38;;;0.80;;
33108;SDS011;19481;51.118;6.940;2022-11-15T13:46:48;1.20;;;0.90;;
33108;SDS011;19481;51.118;6.940;2022-11-15T13:52:01;1.27;;;0.90;;
33108;SDS011;19481;51.118;6.940;2022-11-15T13:57:08;2.20;;;0.90;;
33108;SDS011;19481;51.118;6.940;2022-11-15T14:02:15;1.08;;;1.08;;
33108;SDS011;19481;51.118;6.940;2022-11-15T14:07:20;1.98;;;1.25;;
33108;SDS011;19481;51.118;6.940;2022-11-15T14:12:27;1.80;;;1.38;;
33108;SDS011;19481;51.118;6.940;2022-11-15T14:17:35;1.85;;;1.38;;
33108;SDS011;19481;51.118;6.940;2022-11-15T14:22:40;2.80;;;1.38;;
33108;SDS011;19481;51.118;6.940;2022-11-15T14:33:24;1.83;;;1.38;;
33108;SDS011;19481;51.118;6.940;2022-11-15T14:38:29;4.40;;;1.55;;
33108;SDS011;19481;51.118;6.940;2022-11-15T14:43:31;4.50;;;1.60;;
33108;SDS011;19481;51.118;6.940;2022-11-15T14:48:34;3.83;;;2.10;;
33108;SDS011;19481;51.118;6.940;2022-11-15T14:53:36;3.17;;;2.03;;
33108;SDS011;19481;51.118;6.940;2022-11-15T14:58:38;13.93;;;1.85;;
33108;SDS011;19481;51.118;6.940;2022-11-15T15:03:41;1.50;;;1.30;;
33108;SDS011;19481;51.118;6.940;2022-11-15T15:08:44;2.72;;;1.40;;
33108;SDS011;19481;51.118;6.940;2022-11-15T15:13:45;7.43;;;1.40;;
33108;SDS011;19481;51.118;6.940;2022-11-15T15:18:49;2.85;;;1.17;;
33108;SDS011;19481;51.118;6.940;2022-11-15T15:23:51;4.72;;;1.20;;
33108;SDS011;19481;51.118;6.940;2022-11-15T15:28:54;1.17;;;1.08;;
33108;SDS011;19481;51.118;6.940;2022-11-15T15:33:56;1.95;;;1.08;;
33108;SDS011;19481;51.118;6.940;2022-11-15T15:38:58;1.48;;;1.05;;
33108;SDS011;19481;51.118;6.940;2022-11-15T15:44:00;1.65;;;1.10;;
33108;SDS011;19481;51.118;6.940;2022-11-15T15:49:03;4.38;;;1.10;;
33108;SDS011;19481;51.118;6.940;2022-11-15T15:54:04;1.65;;;1.23;;
33108;SDS011;19481;51.118;6.940;2022-11-15T15:59:06;3.20;;;1.10;;
33108;SDS011;19481;51.118;6.940;2022-11-15T16:04:09;1.80;;;1.00;;
33108;SDS011;19481;51.118;6.940;2022-11-15T16:09:12;3.47;;;1.00;;
33108;SDS011;19481;51.118;6.940;2022-11-15T16:14:15;1.50;;;1.17;;
33108;SDS011;19481;51.118;6.940;2022-11-15T16:19:18;1.73;;;1.20;;
33108;SDS011;19481;51.118;6.940;2022-11-15T16:24:20;3.03;;;1.25;;
33108;SDS011;19481;51.118;6.940;2022-11-15T16:29:22;1.20;;;1.02;;
33108;SDS011;19481;51.118;6.940;2022-11-15T16:34:25;1.38;;;1.00;;
33108;SDS011;19481;51.118;6.940;2022-11-15T16:39:27;1.85;;;1.10;;
33108;SDS011;19481;51.118;6.940;2022-11-15T16:44:29;1.83;;;1.30;;
33108;SDS011;19481;51.118;6.940;2022-11-15T16:49:32;2.13;;;1.38;;
33108;SDS011;19481;51.118;6.940;2022-11-15T16:54:34;1.35;;;1.20;;
33108;SDS011;19481;51.118;6.940;2022-11-15T16:59:36;1.20;;;1.10;;
33108;SDS011;19481;51.118;6.940;2022-11-15T17:04:39;1.40;;;1.30;;
33108;SDS011;19481;51.118;6.940;2022-11-15T17:09:41;1.90;;;1.40;;
33108;SDS011;19481;51.118;6.940;2022-11-15T17:14:42;1.40;;;1.30;;
33108;SDS011;19481;51.118;6.940;2022-11-15T17:19:46;3.20;;;1.33;;
33108;SDS011;19481;51.118;6.940;2022-11-15T17:24:48;1.30;;;1.20;;
33108;SDS011;19481;51.118;6.940;2022-11-15T17:29:49;1.90;;;1.70;;
33108;SDS011;19481;51.118;6.940;2022-11-15T17:34:52;4.15;;;1.55;;
33108;SDS011;19481;51.118;6.940;2022-11-15T17:39:54;1.70;;;1.60;;
33108;SDS011;19481;51.118;6.940;2022-11-15T17:44:55;1.40;;;1.05;;
33108;SDS011;19481;51.118;6.940;2022-11-15T17:49:58;2.35;;;1.55;;
33108;SDS011;19481;51.118;6.940;2022-11-15T17:55:00;4.30;;;1.50;;
33108;SDS011;19481;51.118;6.940;2022-11-15T18:00:02;2.63;;;2.30;;
33108;SDS011;19481;51.118;6.940;2022-11-15T18:05:07;2.90;;;1.35;;
33108;SDS011;19481;51.118;6.940;2022-11-15T18:10:09;5.00;;;1.38;;
33108;SDS011;19481;51.118;6.940;2022-11-15T18:15:10;2.70;;;1.70;;
33108;SDS011;19481;51.118;6.940;2022-11-15T18:20:13;1.77;;;1.25;;
33108;SDS011;19481;51.118;6.940;2022-11-15T18:25:16;3.30;;;1.70;;
33108;SDS011;19481;51.118;6.940;2022-11-15T18:30:17;2.33;;;1.77;;
33108;SDS011;19481;51.118;6.940;2022-11-15T18:35:20;2.67;;;2.15;;
33108;SDS011;19481;51.118;6.940;2022-11-15T18:40:22;3.00;;;2.40;;
33108;SDS011;19481;51.118;6.940;2022-11-15T18:45:24;2.35;;;2.05;;
33108;SDS011;19481;51.118;6.940;2022-11-15T18:50:27;3.78;;;1.98;;
33108;SDS011;19481;51.118;6.940;2022-11-15T18:55:29;2.63;;;2.42;;
33108;SDS011;19481;51.118;6.940;2022-11-15T19:00:31;2.97;;;2.30;;
33108;SDS011;19481;51.118;6.940;2022-11-15T19:05:36;3.63;;;3.00;;
33108;SDS011;19481;51.118;6.940;2022-11-15T19:10:38;2.72;;;2.50;;
33108;SDS011;19481;51.118;6.940;2022-11-15T19:15:39;2.70;;;2.42;;
33108;SDS011;19481;51.118;6.940;2022-11-15T19:20:42;2.15;;;1.98;;
33108;SDS011;19481;51.118;6.940;2022-11-15T19:25:52;5.85;;;2.47;;
33108;SDS011;19481;51.118;6.940;2022-11-15T19:31:01;3.38;;;2.92;;
33108;SDS011;19481;51.118;6.940;2022-11-15T19:36:06;2.95;;;2.30;;
33108;SDS011;19481;51.118;6.940;2022-11-15T19:41:10;4.85;;;2.88;;
33108;SDS011;19481;51.118;6.940;2022-11-15T19:46:13;3.88;;;2.75;;
33108;SDS011;19481;51.118;6.940;2022-11-15T19:51:17;3.90;;;3.08;;
33108;SDS011;19481;51.118;6.940;2022-11-15T19:56:21;4.82;;;2.95;;
33108;SDS011;19481;51.118;6.940;2022-11-15T20:01:24;3.72;;;3.40;;
33108;SDS011;19481;51.118;6.940;2022-11-15T20:06:29;3.40;;;3.10;;
33108;SDS011;19481;51.118;6.940;2022-11-15T20:11:32;4.93;;;2.88;;
33108;SDS011;19481;51.118;6.940;2022-11-15T20:16:37;5.88;;;2.85;;
33108;SDS011;19481;51.118;6.940;2022-11-15T20:21:40;3.90;;;3.35;;
33108;SDS011;19481;51.118;6.940;2022-11-15T20:26:42;3.58;;;2.60;;
33108;SDS011;19481;51.118;6.940;2022-11-15T20:31:44;3.13;;;2.65;;
33108;SDS011;19481;51.118;6.940;2022-11-15T20:36:47;5.00;;;2.85;;
33108;SDS011;19481;51.118;6.940;2022-11-15T20:41:48;3.00;;;2.70;;
33108;SDS011;19481;51.118;6.940;2022-11-15T20:46:50;3.13;;;2.80;;
33108;SDS011;19481;51.118;6.940;2022-11-15T20:51:53;3.83;;;2.95;;
33108;SDS011;19481;51.118;6.940;2022-11-15T20:56:54;5.43;;;2.90;;
33108;SDS011;19481;51.118;6.940;2022-11-15T21:01:56;3.63;;;3.20;;
33108;SDS011;19481;51.118;6.940;2022-11-15T21:06:59;6.20;;;3.22;;
33108;SDS011;19481;51.118;6.940;2022-11-15T21:12:01;5.60;;;2.85;;
33108;SDS011;19481;51.118;6.940;2022-11-15T21:17:11;4.13;;;3.28;;
33108;SDS011;19481;51.118;6.940;2022-11-15T21:22:14;2.85;;;2.60;;
33108;SDS011;19481;51.118;6.940;2022-11-15T21:27:16;3.22;;;3.00;;
33108;SDS011;19481;51.118;6.940;2022-11-15T21:32:18;4.97;;;2.60;;
33108;SDS011;19481;51.118;6.940;2022-11-15T21:37:21;4.40;;;3.30;;
33108;SDS011;19481;51.118;6.940;2022-11-15T21:42:23;3.55;;;3.13;;
33108;SDS011;19481;51.118;6.940;2022-11-15T21:47:24;4.78;;;3.38;;
33108;SDS011;19481;51.118;6.940;2022-11-15T21:52:27;4.55;;;2.97;;
33108;SDS011;19481;51.118;6.940;2022-11-15T21:57:29;4.10;;;2.92;;
33108;SDS011;19481;51.118;6.940;2022-11-15T22:02:30;3.83;;;2.70;;
33108;SDS011;19481;51.118;6.940;2022-11-15T22:07:33;3.30;;;3.00;;
33108;SDS011;19481;51.118;6.940;2022-11-15T22:12:35;3.17;;;2.80;;
33108;SDS011;19481;51.118;6.940;2022-11-15T22:17:36;4.25;;;2.90;;
33108;SDS011;19481;51.118;6.940;2022-11-15T22:22:57;3.10;;;2.80;;
33108;SDS011;19481;51.118;6.940;2022-11-15T22:28:02;3.22;;;2.63;;
33108;SDS011;19481;51.118;6.940;2022-11-15T22:33:04;2.50;;;2.30;;
33108;SDS011;19481;51.118;6.940;2022-11-15T22:38:07;4.82;;;2.80;;
33108;SDS011;19481;51.118;6.940;2022-11-15T22:43:10;3.65;;;2.75;;
33108;SDS011;19481;51.118;6.940;2022-11-15T22:48:12;3.70;;;2.65;;
33108;SDS011;19481;51.118;6.940;2022-11-15T22:53:15;3.50;;;2.80;;
33108;SDS011;19481;51.118;6.940;2022-11-15T22:58:18;3.72;;;2.63;;
33108;SDS011;19481;51.118;6.940;2022-11-15T23:03:20;2.92;;;2.65;;
33108;SDS011;19481;51.118;6.940;2022-11-15T23:08:23;2.95;;;2.45;;
33108;SDS011;19481;51.118;6.940;2022-11-15T23:13:25;2.60;;;2.40;;
33108;SDS011;19481;51.118;6.940;2022-11-15T23:18:28;4.80;;;2.45;;
33108;SDS011;19481;51.118;6.940;2022-11-15T23:23:34;4.10;;;2.63;;
33108;SDS011;19481;51.118;6.940;2022-11-15T23:28:36;4.50;;;2.50;;
33108;SDS011;19481;51.118;6.940;2022-11-15T23:33:37;2.85;;;2.60;;
33108;SDS011;19481;51.118;6.940;2022-11-15T23:38:58;4.13;;;2.45;;
33108;SDS011;19481;51.118;6.940;2022-11-15T23:44:02;3.08;;;2.40;;
33108;SDS011;19481;51.118;6.940;2022-11-15T23:49:04;3.05;;;2.80;;
33108;SDS011;19481;51.118;6.940;2022-11-15T23:54:07;2.58;;;2.38;;
33108;SDS011;19481;51.118;6.940;2022-11-15T23:59:09;3.20;;;2.90;;
